createdAt,value
2018-08-04T00:00:23.165Z,3.60
2018-08-04T00:02:51.761Z,4.10
2018-08-04T00:05:20.250Z,4.27
2018-08-04T00:07:48.724Z,3.90
2018-08-04T00:10:20.127Z,4.43
2018-08-04T00:12:49.841Z,3.50
2018-08-04T00:15:18.535Z,3.67
2018-08-04T00:17:47.882Z,3.50
2018-08-04T00:20:16.754Z,3.67
2018-08-04T00:22:45.293Z,2.90
2018-08-04T00:25:13.820Z,3.57
2018-08-04T00:27:42.386Z,3.50
2018-08-04T00:30:12.509Z,3.80
2018-08-04T00:32:41.621Z,3.60
2018-08-04T00:35:10.823Z,3.90
2018-08-04T00:37:39.493Z,3.97
2018-08-04T00:40:10.786Z,3.03
2018-08-04T00:42:39.308Z,3.60
2018-08-04T00:45:08.020Z,2.57
2018-08-04T00:47:36.578Z,3.20
2018-08-04T00:50:06.499Z,3.60
2018-08-04T00:52:35.175Z,3.10
2018-08-04T00:55:03.875Z,3.57
2018-08-04T00:57:32.390Z,3.33
2018-08-04T01:00:00.904Z,3.53
2018-08-04T01:02:29.465Z,2.57
2018-08-04T01:04:57.994Z,3.73
2018-08-04T01:07:26.588Z,3.87
2018-08-04T01:09:57.552Z,3.07
2018-08-04T01:12:26.168Z,2.77
2018-08-04T01:14:54.672Z,4.47
2018-08-04T01:17:23.293Z,3.80
2018-08-04T01:19:51.803Z,4.23
2018-08-04T01:22:20.352Z,4.00
2018-08-04T01:24:48.878Z,4.63
2018-08-04T01:27:17.380Z,4.83
2018-08-04T01:29:46.008Z,4.70
2018-08-04T01:32:14.509Z,4.77
2018-08-04T01:34:43.024Z,4.60
2018-08-04T01:37:11.539Z,4.50
2018-08-04T01:39:40.072Z,5.50
2018-08-04T01:42:08.605Z,3.50
2018-08-04T01:44:37.152Z,4.73
2018-08-04T01:47:05.670Z,5.07
2018-08-04T01:49:34.192Z,4.37
2018-08-04T01:52:02.693Z,4.50
2018-08-04T01:54:31.256Z,4.70
2018-08-04T01:56:59.804Z,4.53
2018-08-04T01:59:28.381Z,4.33
2018-08-04T02:01:56.927Z,4.77
2018-08-04T02:04:25.443Z,4.80
2018-08-04T02:06:53.966Z,4.57
2018-08-04T02:09:22.501Z,4.77
2018-08-04T02:11:51.013Z,4.00
2018-08-04T02:14:19.524Z,4.67
2018-08-04T02:16:48.224Z,5.10
2018-08-04T02:19:16.731Z,4.67
2018-08-04T02:21:45.222Z,4.90
2018-08-04T02:24:13.750Z,5.40
2018-08-04T02:26:42.262Z,5.57
2018-08-04T02:29:10.757Z,5.30
2018-08-04T02:31:39.276Z,5.43
2018-08-04T02:34:07.804Z,4.70
2018-08-04T02:36:36.433Z,5.37
2018-08-04T02:39:07.305Z,5.37
2018-08-04T02:41:35.817Z,5.10
2018-08-04T02:44:04.553Z,5.60
2018-08-04T02:46:33.376Z,5.43
2018-08-04T02:49:01.869Z,4.50
2018-08-04T02:51:30.419Z,4.33
2018-08-04T02:53:58.953Z,4.50
2018-08-04T02:56:27.473Z,5.57
2018-08-04T02:58:55.979Z,4.00
2018-08-04T03:01:24.500Z,4.70
2018-08-04T03:03:53.004Z,4.73
2018-08-04T03:06:21.519Z,4.50
2018-08-04T03:08:50.060Z,5.37
2018-08-04T03:11:18.559Z,5.10
2018-08-04T03:13:47.094Z,5.30
2018-08-04T03:16:15.706Z,5.00
2018-08-04T03:18:43.929Z,4.30
2018-08-04T03:21:12.444Z,4.80
2018-08-04T03:23:40.953Z,5.23
2018-08-04T03:26:09.135Z,4.60
2018-08-04T03:28:37.748Z,5.07
2018-08-04T03:31:06.322Z,5.33
2018-08-04T03:33:34.814Z,4.40
2018-08-04T03:36:03.657Z,3.97
2018-08-04T03:38:32.169Z,4.53
2018-08-04T03:41:00.700Z,5.33
2018-08-04T03:43:29.236Z,4.20
2018-08-04T03:45:57.764Z,4.20
2018-08-04T03:48:26.248Z,4.50
2018-08-04T03:50:54.900Z,3.70
2018-08-04T03:53:23.492Z,5.10
2018-08-04T03:55:52.078Z,5.40
2018-08-04T03:58:20.657Z,4.90
2018-08-04T04:00:49.178Z,6.80
2018-08-04T04:03:17.710Z,14.40
2018-08-04T04:05:46.297Z,19.70
2018-08-04T04:08:14.828Z,29.17
2018-08-04T04:10:43.374Z,46.00
2018-08-04T04:13:11.855Z,36.97
2018-08-04T04:15:40.439Z,38.77
2018-08-04T04:18:08.972Z,34.90
2018-08-04T04:20:37.470Z,21.70
2018-08-04T04:23:06.013Z,22.53
2018-08-04T04:25:34.590Z,17.50
2018-08-04T04:28:03.106Z,13.37
2018-08-04T04:30:31.664Z,12.90
2018-08-04T04:33:00.186Z,11.63
2018-08-04T04:35:28.705Z,9.73
2018-08-04T04:37:57.291Z,7.70
2018-08-04T04:40:25.808Z,6.40
2018-08-04T04:42:54.300Z,6.50
2018-08-04T04:45:22.838Z,6.40
2018-08-04T04:47:51.427Z,5.30
2018-08-04T04:50:19.944Z,5.00
2018-08-04T04:52:48.597Z,5.77
2018-08-04T04:55:17.230Z,4.90
2018-08-04T04:57:45.782Z,4.40
2018-08-04T05:00:14.351Z,5.00
2018-08-04T05:02:43.033Z,5.53
2018-08-04T05:05:11.584Z,5.17
2018-08-04T05:07:40.155Z,5.93
2018-08-04T05:10:08.714Z,5.73
2018-08-04T05:12:37.275Z,7.20
2018-08-04T05:15:06.801Z,12.27
2018-08-04T05:17:35.357Z,20.30
2018-08-04T05:20:03.948Z,20.17
2018-08-04T05:22:32.492Z,23.07
2018-08-04T05:25:00.998Z,36.73
2018-08-04T05:27:29.492Z,36.27
2018-08-04T05:29:58.094Z,27.60
2018-08-04T05:32:26.669Z,21.50
2018-08-04T05:34:55.182Z,16.17
2018-08-04T05:37:23.788Z,12.03
2018-08-04T05:39:52.649Z,9.30
2018-08-04T05:42:21.166Z,6.70
2018-08-04T05:44:49.790Z,6.67
2018-08-04T05:47:18.402Z,6.60
2018-08-04T05:49:46.898Z,6.33
2018-08-04T05:52:15.445Z,5.70
2018-08-04T05:54:43.934Z,5.00
2018-08-04T05:57:12.458Z,6.00
2018-08-04T05:59:41.087Z,4.80
2018-08-04T06:02:09.692Z,5.10
2018-08-04T06:04:38.237Z,4.80
2018-08-04T06:07:06.810Z,5.43
2018-08-04T06:09:35.292Z,4.77
2018-08-04T06:12:03.861Z,5.37
2018-08-04T06:14:32.609Z,3.83
2018-08-04T06:17:01.176Z,5.17
2018-08-04T06:19:29.864Z,4.60
2018-08-04T06:21:58.494Z,4.40
2018-08-04T06:24:26.992Z,5.20
2018-08-04T06:26:55.512Z,5.20
2018-08-04T06:29:24.127Z,5.40
2018-08-04T06:31:52.680Z,4.93
2018-08-04T06:34:21.292Z,5.37
2018-08-04T06:36:49.824Z,5.10
2018-08-04T06:39:18.338Z,5.43
2018-08-04T06:41:46.963Z,5.50
2018-08-04T06:44:15.560Z,4.60
2018-08-04T06:46:44.169Z,4.30
2018-08-04T06:49:12.689Z,5.10
2018-08-04T06:51:41.273Z,4.30
2018-08-04T06:54:09.797Z,5.10
2018-08-04T06:56:38.411Z,4.50
2018-08-04T06:59:07.009Z,3.30
2018-08-04T07:01:35.570Z,5.00
2018-08-04T07:04:04.123Z,4.23
2018-08-04T07:06:32.655Z,4.80
2018-08-04T07:09:01.159Z,4.50
2018-08-04T07:11:29.659Z,4.80
2018-08-04T07:13:58.212Z,4.27
2018-08-04T07:16:26.720Z,4.00
2018-08-04T07:18:55.375Z,3.60
2018-08-04T07:21:23.965Z,3.00
2018-08-04T07:23:52.582Z,3.60
2018-08-04T07:26:21.079Z,3.60
2018-08-04T07:28:49.654Z,3.50
2018-08-04T07:31:18.158Z,3.50
2018-08-04T07:33:46.640Z,3.90
2018-08-04T07:36:15.165Z,2.57
2018-08-04T07:38:43.645Z,3.40
2018-08-04T07:41:12.147Z,3.60
2018-08-04T07:43:40.687Z,3.40
2018-08-04T07:46:09.395Z,3.40
2018-08-04T07:48:37.906Z,2.83
2018-08-04T07:51:06.442Z,3.00
2018-08-04T07:53:34.956Z,3.97
2018-08-04T07:56:03.446Z,3.23
2018-08-04T07:58:31.964Z,3.43
2018-08-04T08:01:00.466Z,3.00
2018-08-04T08:03:28.992Z,2.00
2018-08-04T08:05:57.556Z,2.90
2018-08-04T08:08:26.057Z,3.40
2018-08-04T08:10:54.602Z,2.43
2018-08-04T08:13:23.227Z,3.43
2018-08-04T08:15:51.724Z,2.73
2018-08-04T08:18:20.231Z,2.60
2018-08-04T08:20:48.746Z,2.47
2018-08-04T08:23:17.281Z,2.47
2018-08-04T08:25:57.009Z,2.27
2018-08-04T08:28:25.534Z,3.10
2018-08-04T08:30:54.033Z,1.77
2018-08-04T08:33:22.656Z,1.40
2018-08-04T08:35:51.129Z,1.90
2018-08-04T08:38:19.620Z,2.03
2018-08-04T08:40:48.247Z,1.80
2018-08-04T08:43:16.716Z,2.07
2018-08-04T08:45:45.197Z,2.00
2018-08-04T08:48:13.718Z,2.17
2018-08-04T08:50:42.217Z,2.40
2018-08-04T08:53:10.779Z,2.67
2018-08-04T08:55:39.247Z,2.57
2018-08-04T08:58:07.467Z,2.93
2018-08-04T09:00:35.969Z,2.30
2018-08-04T09:03:04.522Z,2.17
2018-08-04T09:05:33.092Z,2.57
2018-08-04T09:08:01.669Z,2.63
2018-08-04T09:10:30.237Z,1.40
2018-08-04T09:12:58.462Z,3.23
2018-08-04T09:15:27.006Z,1.70
2018-08-04T09:17:55.527Z,1.30
2018-08-04T09:20:24.071Z,1.57
2018-08-04T09:22:52.689Z,1.73
2018-08-04T09:25:21.223Z,1.40
2018-08-04T09:27:49.438Z,1.60
2018-08-04T09:30:17.950Z,1.13
2018-08-04T09:32:46.531Z,1.90
2018-08-04T09:35:15.825Z,1.10
2018-08-04T09:37:44.903Z,1.23
2018-08-04T09:40:14.655Z,2.20
2018-08-04T09:42:44.209Z,1.53
2018-08-04T09:45:12.862Z,1.73
2018-08-04T09:47:41.902Z,1.50
2018-08-04T09:50:12.030Z,1.23
2018-08-04T09:52:41.080Z,1.20
2018-08-04T09:55:10.630Z,1.10
2018-08-04T09:57:39.611Z,1.37
2018-08-04T10:00:10.601Z,1.07
2018-08-04T10:02:39.169Z,1.10
2018-08-04T10:05:07.662Z,0.90
2018-08-04T10:07:36.150Z,1.47
2018-08-04T10:10:04.670Z,0.83
2018-08-04T10:12:33.205Z,0.70
2018-08-04T10:15:01.756Z,1.07
2018-08-04T10:17:30.293Z,1.27
2018-08-04T10:19:58.456Z,1.00
2018-08-04T10:22:26.945Z,1.20
2018-08-04T10:24:55.586Z,1.27
2018-08-04T10:27:26.101Z,1.20
2018-08-04T10:29:54.611Z,1.30
2018-08-04T10:32:23.331Z,1.67
2018-08-04T10:34:51.812Z,1.20
2018-08-04T10:37:20.337Z,0.90
2018-08-04T10:39:48.888Z,1.20
2018-08-04T10:42:17.417Z,1.30
2018-08-04T10:44:45.898Z,1.20
2018-08-04T10:47:14.464Z,1.00
2018-08-04T10:49:43.065Z,1.00
2018-08-04T10:52:11.706Z,0.70
2018-08-04T10:54:39.959Z,1.07
2018-08-04T10:57:08.570Z,1.47
2018-08-04T10:59:37.047Z,1.33
2018-08-04T11:02:05.609Z,1.30
2018-08-04T11:04:34.111Z,1.20
2018-08-04T11:07:02.350Z,2.00
2018-08-04T11:09:31.941Z,1.50
2018-08-04T11:12:00.580Z,0.90
2018-08-04T11:14:28.812Z,1.00
2018-08-04T11:16:57.364Z,0.90
2018-08-04T11:19:25.964Z,0.87
2018-08-04T11:21:54.508Z,3.30
2018-08-04T11:24:23.061Z,1.60
2018-08-04T11:26:51.573Z,1.03
2018-08-04T11:29:20.125Z,0.67
2018-08-04T11:31:48.811Z,1.00
2018-08-04T11:34:17.379Z,0.93
2018-08-04T11:36:46.206Z,1.30
2018-08-04T11:39:14.725Z,0.80
2018-08-04T11:41:43.230Z,0.70
2018-08-04T11:44:11.750Z,1.20
2018-08-04T11:46:40.283Z,1.17
2018-08-04T11:49:08.867Z,1.20
2018-08-04T11:51:37.491Z,0.70
2018-08-04T11:54:06.082Z,0.70
2018-08-04T11:56:34.589Z,0.70
2018-08-04T11:59:02.818Z,0.60
2018-08-04T12:01:31.494Z,0.83
2018-08-04T12:04:00.020Z,0.80
2018-08-04T12:06:28.515Z,0.70
2018-08-04T12:08:57.075Z,0.80
2018-08-04T12:11:25.636Z,0.90
2018-08-04T12:13:54.196Z,0.90
2018-08-04T12:16:22.754Z,0.77
2018-08-04T12:18:50.993Z,1.00
2018-08-04T12:21:19.470Z,0.70
2018-08-04T12:23:48.003Z,0.60
2018-08-04T12:26:16.497Z,0.57
2018-08-04T12:28:45.019Z,0.80
2018-08-04T12:31:13.596Z,0.90
2018-08-04T12:33:42.098Z,0.73
2018-08-04T12:36:10.630Z,0.53
2018-08-04T12:38:39.181Z,1.07
2018-08-04T12:41:07.716Z,0.53
2018-08-04T12:43:36.237Z,1.10
2018-08-04T12:46:04.985Z,0.90
2018-08-04T12:48:33.572Z,0.60
2018-08-04T12:51:02.673Z,0.63
2018-08-04T12:53:31.224Z,1.20
2018-08-04T12:56:00.558Z,0.70
2018-08-04T12:58:29.142Z,1.27
2018-08-04T13:00:57.757Z,1.07
2018-08-04T13:03:26.278Z,0.80
2018-08-04T13:05:54.887Z,0.87
2018-08-04T13:08:23.449Z,0.80
2018-08-04T13:10:51.979Z,0.93
2018-08-04T13:13:20.469Z,1.40
2018-08-04T13:15:49.004Z,1.00
2018-08-04T13:18:17.521Z,0.80
2018-08-04T13:20:46.025Z,0.87
2018-08-04T13:23:14.670Z,1.23
2018-08-04T13:25:43.207Z,0.80
2018-08-04T13:28:11.765Z,1.10
2018-08-04T13:30:40.352Z,0.90
2018-08-04T13:33:09.012Z,0.90
2018-08-04T13:35:37.575Z,0.87
2018-08-04T13:38:06.132Z,1.07
2018-08-04T13:40:34.875Z,1.33
2018-08-04T13:43:03.432Z,0.50
2018-08-04T13:45:31.956Z,0.60
2018-08-04T13:48:00.465Z,0.50
2018-08-04T13:50:28.656Z,0.70
2018-08-04T13:52:57.184Z,0.87
2018-08-04T13:55:25.692Z,0.70
2018-08-04T13:57:54.196Z,0.93
2018-08-04T14:00:22.428Z,0.80
2018-08-04T14:02:50.992Z,1.10
2018-08-04T14:05:19.499Z,0.97
2018-08-04T14:07:48.345Z,1.00
2018-08-04T14:10:16.969Z,0.90
2018-08-04T14:12:45.478Z,1.00
2018-08-04T14:15:14.121Z,0.87
2018-08-04T14:17:42.665Z,0.90
2018-08-04T14:20:10.910Z,0.50
2018-08-04T14:22:39.447Z,1.00
2018-08-04T14:25:08.015Z,0.93
2018-08-04T14:27:36.582Z,0.53
2018-08-04T14:30:07.692Z,0.80
2018-08-04T14:32:36.263Z,0.60
2018-08-04T14:35:05.651Z,1.00
2018-08-04T14:37:34.566Z,0.40
2018-08-04T14:40:03.333Z,0.60
2018-08-04T14:42:31.846Z,0.70
2018-08-04T14:45:00.389Z,0.90
2018-08-04T14:47:28.953Z,0.77
2018-08-04T14:49:57.458Z,1.10
2018-08-04T14:52:26.162Z,1.10
2018-08-04T14:54:54.702Z,0.67
2018-08-04T14:57:23.278Z,0.87
2018-08-04T14:59:51.529Z,0.83
2018-08-04T15:02:20.089Z,0.77
2018-08-04T15:04:48.638Z,0.50
2018-08-04T15:07:17.160Z,0.60
2018-08-04T15:09:45.737Z,0.90
2018-08-04T15:12:14.315Z,0.60
2018-08-04T15:14:42.861Z,0.83
2018-08-04T15:17:11.077Z,1.27
2018-08-04T15:19:39.623Z,0.70
2018-08-04T15:22:08.181Z,0.70
2018-08-04T15:24:36.688Z,0.93
2018-08-04T15:27:05.815Z,1.20
2018-08-04T15:29:34.411Z,1.90
2018-08-04T15:32:02.963Z,0.60
2018-08-04T15:34:31.483Z,0.80
2018-08-04T15:37:00.092Z,0.90
2018-08-04T15:39:28.629Z,0.90
2018-08-04T15:41:57.280Z,0.90
2018-08-04T15:44:25.543Z,1.00
2018-08-04T15:46:54.064Z,0.73
2018-08-04T15:49:22.578Z,0.83
2018-08-04T15:51:51.157Z,0.97
2018-08-04T15:54:19.841Z,0.70
2018-08-04T15:56:48.384Z,1.70
2018-08-04T15:59:17.236Z,1.03
2018-08-04T16:01:45.739Z,1.10
2018-08-04T16:04:14.244Z,0.87
2018-08-04T16:06:42.788Z,1.10
2018-08-04T16:09:12.290Z,0.80
2018-08-04T16:11:41.602Z,0.63
2018-08-04T16:14:10.770Z,1.10
2018-08-04T16:16:40.123Z,1.40
2018-08-04T16:19:08.956Z,1.20
2018-08-04T16:21:37.502Z,1.80
2018-08-04T16:24:06.255Z,1.30
2018-08-04T16:26:34.890Z,1.63
2018-08-04T16:29:03.485Z,1.47
2018-08-04T16:31:32.089Z,1.97
2018-08-04T16:34:00.610Z,1.40
2018-08-04T16:36:29.163Z,1.43
2018-08-04T16:38:57.689Z,1.60
2018-08-04T16:41:26.247Z,1.33
2018-08-04T16:43:54.790Z,2.13
2018-08-04T16:46:24.002Z,1.53
2018-08-04T16:48:52.626Z,1.30
2018-08-04T16:51:21.154Z,2.03
2018-08-04T16:53:49.679Z,2.40
2018-08-04T16:56:18.173Z,3.07
2018-08-04T16:58:46.724Z,2.23
2018-08-04T17:01:15.291Z,2.40
2018-08-04T17:03:43.789Z,2.20
2018-08-04T17:06:12.348Z,2.10
2018-08-04T17:08:40.866Z,3.23
2018-08-04T17:11:09.435Z,3.10
2018-08-04T17:13:37.961Z,2.07
2018-08-04T17:16:06.489Z,2.63
2018-08-04T17:18:34.972Z,3.30
2018-08-04T17:21:03.550Z,2.30
2018-08-04T17:23:32.070Z,2.40
2018-08-04T17:26:00.867Z,1.97
2018-08-04T17:28:29.405Z,2.30
2018-08-04T17:30:58.123Z,2.37
2018-08-04T17:33:26.622Z,4.07
2018-08-04T17:35:55.415Z,3.80
2018-08-04T17:38:24.069Z,2.20
2018-08-04T17:40:52.602Z,2.87
2018-08-04T17:43:21.127Z,1.87
2018-08-04T17:45:49.663Z,2.40
2018-08-04T17:48:18.168Z,2.67
2018-08-04T17:50:46.744Z,2.70
2018-08-04T17:53:15.279Z,2.07
2018-08-04T17:55:43.440Z,2.27
2018-08-04T17:58:11.984Z,2.40
2018-08-04T18:00:40.565Z,2.90
2018-08-04T18:03:08.777Z,2.70
2018-08-04T18:05:37.392Z,2.40
2018-08-04T18:08:05.960Z,2.73
2018-08-04T18:10:34.625Z,2.60
2018-08-04T18:13:03.250Z,4.23
2018-08-04T18:15:31.772Z,2.50
2018-08-04T18:18:00.331Z,2.37
2018-08-04T18:20:28.862Z,1.97
2018-08-04T18:22:57.427Z,2.60
2018-08-04T18:25:25.966Z,2.40
2018-08-04T18:27:54.503Z,1.70
2018-08-04T18:30:23.459Z,2.87
2018-08-04T18:32:52.111Z,2.30
2018-08-04T18:35:21.013Z,2.00
2018-08-04T18:37:49.600Z,2.40
2018-08-04T18:40:18.125Z,2.87
2018-08-04T18:42:46.713Z,2.43
2018-08-04T18:45:15.252Z,3.10
2018-08-04T18:47:43.758Z,2.80
2018-08-04T18:50:12.378Z,2.70
2018-08-04T18:52:40.906Z,3.07
2018-08-04T18:55:09.464Z,3.10
2018-08-04T18:57:38.040Z,2.80
2018-08-04T19:00:06.635Z,2.90
2018-08-04T19:02:35.124Z,3.03
2018-08-04T19:05:03.833Z,2.90
2018-08-04T19:07:32.344Z,3.23
2018-08-04T19:10:00.564Z,2.57
2018-08-04T19:12:29.138Z,2.93
2018-08-04T19:14:57.773Z,2.70
2018-08-04T19:17:26.418Z,2.90
2018-08-04T19:19:54.968Z,2.87
2018-08-04T19:22:23.541Z,3.13
2018-08-04T19:24:52.053Z,3.27
2018-08-04T19:27:20.582Z,4.03
2018-08-04T19:29:49.141Z,3.47
2018-08-04T19:32:17.694Z,2.93
2018-08-04T19:34:46.435Z,3.77
2018-08-04T19:37:14.982Z,4.10
2018-08-04T19:39:43.530Z,4.93
2018-08-04T19:42:12.091Z,5.67
2018-08-04T19:44:40.619Z,4.93
2018-08-04T19:47:09.184Z,7.60
2018-08-04T19:49:37.441Z,5.90
2018-08-04T19:52:06.060Z,6.10
2018-08-04T19:54:34.658Z,5.87
2018-08-04T19:57:03.340Z,5.60
2018-08-04T19:59:31.916Z,7.50
2018-08-04T20:02:00.442Z,7.10
2018-08-04T20:04:28.977Z,8.37
2018-08-04T20:06:57.582Z,6.70
2018-08-04T20:09:26.118Z,7.10
2018-08-04T20:11:54.665Z,6.17
2018-08-04T20:14:23.200Z,7.63
2018-08-04T20:16:51.697Z,6.40
2018-08-04T20:19:20.258Z,8.60
2018-08-04T20:21:48.492Z,8.80
2018-08-04T20:24:17.014Z,9.20
2018-08-04T20:26:45.557Z,7.50
2018-08-04T20:29:14.059Z,8.67
2018-08-04T20:31:42.716Z,8.30
2018-08-04T20:34:11.301Z,7.67
2018-08-04T20:36:39.937Z,8.80
2018-08-04T20:39:09.715Z,8.37
2018-08-04T20:41:38.290Z,7.73
2018-08-04T20:44:06.792Z,7.50
2018-08-04T20:46:35.293Z,8.57
2018-08-04T20:49:03.852Z,6.70
2018-08-04T20:51:32.415Z,8.70
2018-08-04T20:54:00.942Z,6.97
2018-08-04T20:56:29.196Z,7.13
2018-08-04T20:58:57.736Z,7.80
2018-08-04T21:01:37.062Z,7.23
2018-08-04T21:04:05.597Z,6.20
2018-08-04T21:06:34.156Z,7.50
2018-08-04T21:09:02.870Z,6.80
2018-08-04T21:11:31.401Z,8.43
2018-08-04T21:13:59.993Z,7.00
2018-08-04T21:16:28.513Z,7.73
2018-08-04T21:18:57.043Z,7.63
2018-08-04T21:21:25.582Z,7.80
2018-08-04T21:23:54.124Z,6.80
2018-08-04T21:26:22.634Z,6.93
2018-08-04T21:28:51.234Z,6.50
2018-08-04T21:31:19.857Z,5.80
2018-08-04T21:33:48.375Z,6.97
2018-08-04T21:36:16.873Z,7.37
2018-08-04T21:38:45.434Z,6.70
2018-08-04T21:41:13.983Z,7.50
2018-08-04T21:43:42.481Z,6.53
2018-08-04T21:46:11.097Z,6.17
2018-08-04T21:48:40.008Z,5.20
2018-08-04T21:51:08.593Z,6.87
2018-08-04T21:53:37.797Z,6.80
2018-08-04T21:56:06.317Z,6.80
2018-08-04T21:58:34.823Z,6.60
2018-08-04T22:01:08.817Z,6.50
2018-08-04T22:03:37.384Z,6.37
2018-08-04T22:06:06.242Z,4.60
2018-08-04T22:08:46.141Z,5.93
2018-08-04T22:11:14.713Z,4.63
2018-08-04T22:13:43.285Z,5.53
2018-08-04T22:16:11.856Z,4.97
2018-08-04T22:18:40.571Z,5.90
2018-08-04T22:21:09.183Z,5.17
2018-08-04T22:23:37.737Z,6.67
2018-08-04T22:26:06.305Z,5.27
2018-08-04T22:28:34.819Z,5.80
2018-08-04T22:31:03.387Z,5.00
2018-08-04T22:33:31.940Z,6.73
2018-08-04T22:36:00.429Z,6.63
2018-08-04T22:38:28.948Z,6.13
2018-08-04T22:40:57.438Z,5.30
2018-08-04T22:43:26.036Z,5.73
2018-08-04T22:46:02.404Z,7.40
2018-08-04T22:48:30.944Z,5.33
2018-08-04T22:50:59.441Z,5.17
2018-08-04T22:53:27.991Z,5.97
2018-08-04T22:55:56.546Z,6.13
2018-08-04T22:58:25.145Z,5.87
2018-08-04T23:00:53.821Z,5.93
2018-08-04T23:03:22.366Z,6.00
2018-08-04T23:05:50.884Z,5.97
2018-08-04T23:08:19.436Z,4.40
2018-08-04T23:10:47.970Z,6.73
2018-08-04T23:13:16.923Z,7.37
2018-08-04T23:15:45.554Z,6.13
2018-08-04T23:18:14.216Z,6.47
2018-08-04T23:20:42.725Z,6.90
2018-08-04T23:23:12.370Z,7.60
2018-08-04T23:25:40.905Z,6.40
2018-08-04T23:28:09.801Z,7.87
2018-08-04T23:30:38.361Z,7.63
2018-08-04T23:33:07.035Z,8.53
2018-08-04T23:35:35.527Z,9.20
2018-08-04T23:38:04.222Z,9.07
2018-08-04T23:40:32.740Z,9.20
2018-08-04T23:43:01.284Z,12.17
2018-08-04T23:45:29.852Z,11.20
2018-08-04T23:47:58.394Z,10.20
2018-08-04T23:50:26.929Z,10.73
2018-08-04T23:52:55.491Z,10.27
2018-08-04T23:55:24.066Z,11.17
2018-08-04T23:57:52.588Z,12.03
